createdAt,value
2023-01-20T00:01:15.137Z,97502.48
2023-01-20T00:03:42.314Z,97498.58
2023-01-20T00:06:09.970Z,97499.05
2023-01-20T00:08:36.380Z,97494.44
2023-01-20T00:11:07.445Z,97496.65
2023-01-20T00:13:35.781Z,97499.04
2023-01-20T00:16:03.963Z,97499.05
2023-01-20T00:18:30.775Z,97497.42
2023-01-20T00:21:01.581Z,97495.30
2023-01-20T00:23:28.009Z,97494.00
2023-01-20T00:25:54.455Z,97497.94
2023-01-20T00:28:21.320Z,97503.16
2023-01-20T00:30:48.185Z,97505.59
2023-01-20T00:33:15.003Z,97506.31
2023-01-20T00:35:42.439Z,97517.05
2023-01-20T00:38:09.407Z,97522.02
2023-01-20T00:40:36.171Z,97527.30
2023-01-20T00:43:02.707Z,97530.20
2023-01-20T00:45:29.237Z,97532.94
2023-01-20T00:47:55.761Z,97532.10
2023-01-20T00:50:22.291Z,97529.52
2023-01-20T00:52:48.987Z,97534.84
2023-01-20T00:55:15.957Z,97542.04
2023-01-20T00:57:42.692Z,97538.33
2023-01-20T01:00:10.234Z,97539.86
2023-01-20T01:02:39.930Z,97537.08
2023-01-20T01:05:06.916Z,97530.80
2023-01-20T01:07:33.561Z,97540.68
2023-01-20T01:10:00.124Z,97541.92
2023-01-20T01:12:26.620Z,97538.79
2023-01-20T01:14:53.407Z,97544.73
2023-01-20T01:17:20.016Z,97540.17
2023-01-20T01:19:46.762Z,97539.17
2023-01-20T01:22:13.261Z,97537.83
2023-01-20T01:24:39.679Z,97539.17
2023-01-20T01:27:06.376Z,97542.64
2023-01-20T01:29:33.231Z,97543.18
2023-01-20T01:32:00.217Z,97550.03
2023-01-20T01:34:26.706Z,97559.44
2023-01-20T01:36:53.372Z,97559.38
2023-01-20T01:39:20.334Z,97562.21
2023-01-20T01:41:46.866Z,97570.83
2023-01-20T01:44:14.663Z,97571.98
2023-01-20T01:46:42.291Z,97574.20
2023-01-20T01:49:22.654Z,97582.95
2023-01-20T01:51:59.742Z,97582.29
2023-01-20T01:54:33.292Z,97584.87
2023-01-20T01:57:00.621Z,97584.17
2023-01-20T01:59:27.784Z,97583.61
2023-01-20T02:01:55.641Z,97583.23
2023-01-20T02:04:27.840Z,97590.72
2023-01-20T02:06:58.035Z,97588.34
2023-01-20T02:09:26.541Z,97586.80
2023-01-20T02:11:58.812Z,97588.39
2023-01-20T02:14:49.214Z,97589.85
2023-01-20T02:17:28.164Z,97585.46
2023-01-20T02:20:25.403Z,97585.00
2023-01-20T02:23:13.055Z,97584.20
2023-01-20T02:26:02.085Z,97583.03
2023-01-20T02:28:52.980Z,97581.34
2023-01-20T02:31:44.409Z,97583.08
2023-01-20T02:34:22.182Z,97590.42
2023-01-20T02:36:57.897Z,97585.48
2023-01-20T02:39:42.845Z,97577.30
2023-01-20T02:42:25.004Z,97576.60
2023-01-20T02:45:04.860Z,97575.23
2023-01-20T02:47:51.005Z,97571.63
2023-01-20T02:50:22.104Z,97567.36
2023-01-20T02:53:01.626Z,97565.29
2023-01-20T02:55:36.240Z,97564.93
2023-01-20T02:58:10.498Z,97565.44
2023-01-20T03:00:43.504Z,97562.02
2023-01-20T03:03:15.581Z,97565.95
2023-01-20T03:05:49.217Z,97566.84
2023-01-20T03:08:17.777Z,97574.52
2023-01-20T03:10:47.173Z,97580.48
2023-01-20T03:13:26.252Z,97579.61
2023-01-20T03:16:02.580Z,97581.33
2023-01-20T03:18:30.543Z,97581.50
2023-01-20T03:20:59.801Z,97582.88
2023-01-20T03:23:30.289Z,97590.38
2023-01-20T03:25:56.983Z,97590.87
2023-01-20T03:28:23.394Z,97594.10
2023-01-20T03:30:50.355Z,97592.56
2023-01-20T03:33:18.509Z,97594.77
2023-01-20T03:35:45.114Z,97591.03
2023-01-20T03:38:12.116Z,97586.09
2023-01-20T03:40:47.277Z,97583.02
2023-01-20T03:43:32.254Z,97582.89
2023-01-20T03:46:07.017Z,97582.19
2023-01-20T03:48:42.290Z,97580.17
2023-01-20T03:51:29.988Z,97580.73
2023-01-20T03:54:04.011Z,97584.13
2023-01-20T03:56:38.079Z,97586.52
2023-01-20T03:59:07.390Z,97593.51
2023-01-20T04:01:41.804Z,97603.75
2023-01-20T04:04:12.871Z,97603.06
2023-01-20T04:06:41.541Z,97604.61
2023-01-20T04:09:20.469Z,97605.50
2023-01-20T04:11:47.028Z,97606.66
2023-01-20T04:14:13.552Z,97607.73
2023-01-20T04:16:40.247Z,97612.02
2023-01-20T04:19:06.909Z,97615.80
2023-01-20T04:21:45.689Z,97619.23
2023-01-20T04:24:34.635Z,97626.60
2023-01-20T04:27:01.736Z,97634.28
2023-01-20T04:29:28.319Z,97637.36
2023-01-20T04:31:59.909Z,97648.27
2023-01-20T04:34:26.631Z,97650.31
2023-01-20T04:36:53.395Z,97654.77
2023-01-20T04:39:19.916Z,97656.32
2023-01-20T04:41:47.591Z,97659.58
2023-01-20T04:44:14.279Z,97659.73
2023-01-20T04:46:40.804Z,97658.55
2023-01-20T04:49:07.882Z,97658.20
2023-01-20T04:51:34.576Z,97658.21
2023-01-20T04:54:01.055Z,97659.27
2023-01-20T04:56:27.849Z,97663.73
2023-01-20T04:58:54.286Z,97664.92
2023-01-20T05:01:21.112Z,97669.37
2023-01-20T05:03:47.988Z,97667.34
2023-01-20T05:06:14.741Z,97670.94
2023-01-20T05:08:41.276Z,97668.20
2023-01-20T05:11:08.237Z,97672.84
2023-01-20T05:13:34.682Z,97671.84
2023-01-20T05:16:02.953Z,97670.69
2023-01-20T05:18:29.993Z,97677.70
2023-01-20T05:20:56.544Z,97681.98
2023-01-20T05:23:22.974Z,97675.89
2023-01-20T05:25:53.711Z,97679.48
2023-01-20T05:28:20.714Z,97679.98
2023-01-20T05:30:51.299Z,97682.56
2023-01-20T05:33:17.952Z,97687.17
2023-01-20T05:35:44.486Z,97696.05
2023-01-20T05:38:11.026Z,97700.83
2023-01-20T05:40:37.901Z,97701.17
2023-01-20T05:43:04.773Z,97707.33
2023-01-20T05:45:31.597Z,97715.33
2023-01-20T05:47:59.801Z,97713.45
2023-01-20T05:50:28.252Z,97711.75
2023-01-20T05:52:55.087Z,97716.53
2023-01-20T05:55:21.744Z,97723.86
2023-01-20T05:57:48.479Z,97728.45
2023-01-20T06:00:15.186Z,97731.02
2023-01-20T06:02:42.182Z,97731.86
2023-01-20T06:05:08.939Z,97731.18
2023-01-20T06:07:35.476Z,97733.91
2023-01-20T06:10:02.028Z,97728.98
2023-01-20T06:12:28.476Z,97729.16
2023-01-20T06:14:55.011Z,97725.42
2023-01-20T06:17:21.636Z,97728.34
2023-01-20T06:19:48.172Z,97723.08
2023-01-20T06:22:15.317Z,97724.46
2023-01-20T06:24:42.303Z,97722.06
2023-01-20T06:27:10.143Z,97725.14
2023-01-20T06:29:37.095Z,97728.04
2023-01-20T06:32:04.359Z,97726.16
2023-01-20T06:34:31.520Z,97726.52
2023-01-20T06:36:58.358Z,97725.81
2023-01-20T06:39:25.000Z,97732.77
2023-01-20T06:41:51.466Z,97742.63
2023-01-20T06:44:17.977Z,97754.88
2023-01-20T06:46:46.720Z,97758.11
2023-01-20T06:49:15.067Z,97758.91
2023-01-20T06:51:41.670Z,97758.91
2023-01-20T06:54:08.136Z,97761.63
2023-01-20T06:56:35.084Z,97765.55
2023-01-20T06:59:01.567Z,97766.41
2023-01-20T07:01:30.323Z,97763.98
2023-01-20T07:03:57.688Z,97769.46
2023-01-20T07:06:36.129Z,97769.30
2023-01-20T07:09:02.765Z,97772.02
2023-01-20T07:11:29.476Z,97774.58
2023-01-20T07:13:55.905Z,97773.54
2023-01-20T07:16:22.587Z,97769.92
2023-01-20T07:18:51.052Z,97770.59
2023-01-20T07:21:18.374Z,97766.45
2023-01-20T07:23:45.966Z,97759.96
2023-01-20T07:26:17.831Z,97762.02
2023-01-20T07:28:46.021Z,97764.55
2023-01-20T07:31:18.940Z,97769.80
2023-01-20T07:33:46.162Z,97776.79
2023-01-20T07:36:14.479Z,97780.48
2023-01-20T07:38:41.486Z,97781.48
2023-01-20T07:41:11.046Z,97779.92
2023-01-20T07:43:37.763Z,97783.27
2023-01-20T07:46:05.532Z,97783.09
2023-01-20T07:48:33.622Z,97785.82
2023-01-20T07:51:02.967Z,97780.55
2023-01-20T07:53:30.476Z,97783.94
2023-01-20T07:56:01.131Z,97786.34
2023-01-20T07:58:28.776Z,97788.05
2023-01-20T08:00:55.932Z,97784.22
2023-01-20T08:03:23.095Z,97785.70
2023-01-20T08:05:49.768Z,97787.70
2023-01-20T08:08:16.197Z,97787.86
2023-01-20T08:10:42.747Z,97792.29
2023-01-20T08:13:09.352Z,97796.34
2023-01-20T08:15:35.759Z,97798.70
2023-01-20T08:18:02.290Z,97797.46
2023-01-20T08:20:28.723Z,97805.25
2023-01-20T08:22:55.154Z,97806.27
2023-01-20T08:25:21.852Z,97814.96
2023-01-20T08:27:49.003Z,97815.88
2023-01-20T08:30:15.589Z,97815.40
2023-01-20T08:32:42.090Z,97810.02
2023-01-20T08:35:08.735Z,97809.43
2023-01-20T08:37:38.309Z,97805.77
2023-01-20T08:40:07.614Z,97806.10
2023-01-20T08:42:34.232Z,97810.71
2023-01-20T08:45:00.951Z,97811.71
2023-01-20T08:47:27.436Z,97811.64
2023-01-20T08:49:54.534Z,97813.51
2023-01-20T08:52:20.994Z,97818.09
2023-01-20T08:54:47.747Z,97817.54
2023-01-20T08:57:14.383Z,97822.34
2023-01-20T08:59:41.044Z,97821.38
2023-01-20T09:02:09.839Z,97817.30
2023-01-20T09:04:37.265Z,97822.80
2023-01-20T09:07:05.088Z,97830.51
2023-01-20T09:09:31.682Z,97829.81
2023-01-20T09:11:58.215Z,97832.89
2023-01-20T09:14:25.565Z,97830.48
2023-01-20T09:16:52.459Z,97825.46
2023-01-20T09:19:19.049Z,97824.61
2023-01-20T09:21:45.700Z,97819.23
2023-01-20T09:24:12.249Z,97819.60
2023-01-20T09:26:39.075Z,97815.55
2023-01-20T09:29:11.485Z,97810.28
2023-01-20T09:31:40.819Z,97807.89
2023-01-20T09:34:07.745Z,97812.30
2023-01-20T09:36:34.482Z,97807.66
2023-01-20T09:39:01.077Z,97807.44
2023-01-20T09:41:32.214Z,97805.52
2023-01-20T09:44:24.990Z,97814.36
2023-01-20T09:46:58.759Z,97812.73
2023-01-20T09:49:35.560Z,97808.94
2023-01-20T09:52:21.527Z,97804.48
2023-01-20T09:54:55.972Z,97805.09
2023-01-20T09:57:27.780Z,97805.59
2023-01-20T10:00:05.633Z,97798.53
2023-01-20T10:02:36.052Z,97794.66
2023-01-20T10:05:12.059Z,97799.27
2023-01-20T10:07:48.372Z,97801.45
2023-01-20T10:10:39.546Z,97793.54
2023-01-20T10:13:30.211Z,97789.52
2023-01-20T10:15:57.475Z,97789.35
2023-01-20T10:18:43.794Z,97785.44
2023-01-20T10:21:13.369Z,97784.34
2023-01-20T10:23:50.603Z,97784.00
2023-01-20T10:26:32.360Z,97785.77
2023-01-20T10:29:06.815Z,97774.63
2023-01-20T10:31:41.426Z,97770.13
2023-01-20T10:34:12.674Z,97768.34
2023-01-20T10:36:44.335Z,97765.55
2023-01-20T10:39:28.584Z,97757.38
2023-01-20T10:42:04.362Z,97759.21
2023-01-20T10:44:34.508Z,97766.70
2023-01-20T10:47:35.014Z,97767.61
2023-01-20T10:50:31.459Z,97773.16
2023-01-20T10:53:15.619Z,97787.02
2023-01-20T10:56:02.140Z,97791.23
2023-01-20T10:58:33.727Z,97781.48
2023-01-20T11:01:03.277Z,97782.12
2023-01-20T11:03:36.650Z,97784.92
2023-01-20T11:06:04.408Z,97781.54
2023-01-20T11:08:31.399Z,97779.48
2023-01-20T11:11:11.158Z,97778.73
2023-01-20T11:13:38.194Z,97775.65
2023-01-20T11:16:14.018Z,97768.19
2023-01-20T11:18:40.927Z,97757.63
2023-01-20T11:21:11.834Z,97755.53
2023-01-20T11:23:48.769Z,97758.52
2023-01-20T11:26:23.213Z,97764.62
2023-01-20T11:29:12.623Z,97763.88
2023-01-20T11:31:47.430Z,97762.69
2023-01-20T11:34:34.711Z,97762.21
2023-01-20T11:37:07.099Z,97753.77
2023-01-20T11:39:36.627Z,97745.56
2023-01-20T11:42:20.783Z,97748.84
2023-01-20T11:44:51.499Z,97746.31
2023-01-20T11:47:28.754Z,97747.17
2023-01-20T11:50:04.244Z,97742.39
2023-01-20T11:52:33.397Z,97743.34
2023-01-20T11:55:09.584Z,97752.94
2023-01-20T11:57:38.218Z,97752.65
2023-01-20T12:00:30.691Z,97746.84
2023-01-20T12:03:15.700Z,97745.67
2023-01-20T12:06:11.394Z,97752.02
2023-01-20T12:08:52.701Z,97756.52
2023-01-20T12:11:58.404Z,97764.89
2023-01-20T12:14:42.240Z,97771.50
2023-01-20T12:17:25.254Z,97769.72
2023-01-20T12:20:56.767Z,97766.83
2023-01-20T12:23:43.999Z,97763.67
2023-01-20T12:26:11.274Z,97763.35
2023-01-20T12:28:48.760Z,97765.96
2023-01-20T12:31:17.664Z,97765.83
2023-01-20T12:33:48.153Z,97760.55
2023-01-20T12:36:49.755Z,97752.90
2023-01-20T12:39:38.046Z,97746.45
2023-01-20T12:42:21.682Z,97751.92
2023-01-20T12:45:18.506Z,97749.88
2023-01-20T12:48:12.928Z,97746.91
2023-01-20T12:51:08.805Z,97750.99
2023-01-20T12:54:15.371Z,97744.01
2023-01-20T12:56:56.623Z,97738.86
2023-01-20T12:59:51.296Z,97739.16
2023-01-20T13:02:23.789Z,97741.88
2023-01-20T13:05:34.976Z,97742.37
2023-01-20T13:08:11.581Z,97739.13
2023-01-20T13:10:51.423Z,97742.20
2023-01-20T13:13:24.692Z,97747.02
2023-01-20T13:16:13.121Z,97747.73
2023-01-20T13:19:04.181Z,97746.21
2023-01-20T13:21:32.638Z,97746.06
2023-01-20T13:24:03.021Z,97743.88
2023-01-20T13:26:31.455Z,97750.55
2023-01-20T13:28:58.717Z,97751.40
2023-01-20T13:31:37.453Z,97749.89
2023-01-20T13:34:22.537Z,97749.17
2023-01-20T13:37:04.473Z,97743.89
2023-01-20T13:39:47.066Z,97745.77
2023-01-20T13:42:30.906Z,97748.88
2023-01-20T13:45:27.255Z,97744.11
2023-01-20T13:47:57.220Z,97752.84
2023-01-20T13:50:25.758Z,97754.05
2023-01-20T13:52:52.273Z,97755.95
2023-01-20T13:55:41.187Z,97745.36
2023-01-20T13:58:15.743Z,97748.27
2023-01-20T14:00:43.161Z,97756.80
2023-01-20T14:03:21.929Z,97761.35
2023-01-20T14:05:50.758Z,97763.58
2023-01-20T14:08:17.711Z,97765.63
2023-01-20T14:10:44.451Z,97766.16
2023-01-20T14:13:12.632Z,97762.06
2023-01-20T14:15:40.190Z,97762.89
2023-01-20T14:18:15.145Z,97760.01
2023-01-20T14:20:41.659Z,97758.84
2023-01-20T14:23:35.910Z,97762.61
2023-01-20T14:26:11.825Z,97763.65
2023-01-20T14:28:45.918Z,97765.73
2023-01-20T14:31:17.440Z,97761.33
2023-01-20T14:33:44.945Z,97761.66
2023-01-20T14:36:16.541Z,97760.14
2023-01-20T14:38:56.847Z,97763.06
2023-01-20T14:41:24.345Z,97757.13
2023-01-20T14:43:50.842Z,97757.15
2023-01-20T14:46:18.012Z,97759.11
2023-01-20T14:48:46.070Z,97761.24
2023-01-20T14:51:13.409Z,97760.75
2023-01-20T14:53:39.835Z,97760.75
2023-01-20T14:56:16.965Z,97758.87
2023-01-20T14:58:48.503Z,97757.33
2023-01-20T15:01:17.921Z,97756.32
2023-01-20T15:03:44.466Z,97759.41
2023-01-20T15:06:10.866Z,97754.66
2023-01-20T15:08:37.432Z,97757.23
2023-01-20T15:11:15.992Z,97748.88
2023-01-20T15:14:03.632Z,97750.44
2023-01-20T15:16:38.173Z,97740.73
2023-01-20T15:19:13.889Z,97740.73
2023-01-20T15:21:42.901Z,97736.47
2023-01-20T15:24:12.946Z,97731.18
2023-01-20T15:26:39.889Z,97732.89
2023-01-20T15:29:26.868Z,97727.26
2023-01-20T15:31:55.555Z,97726.23
2023-01-20T15:34:22.761Z,97729.81
2023-01-20T15:36:50.702Z,97726.35
2023-01-20T15:39:20.943Z,97729.42
2023-01-20T15:41:47.869Z,97727.02
2023-01-20T15:44:15.162Z,97724.27
2023-01-20T15:46:41.860Z,97729.02
2023-01-20T15:49:11.870Z,97726.41
2023-01-20T15:51:38.897Z,97724.20
2023-01-20T15:54:05.356Z,97724.38
2023-01-20T15:56:31.846Z,97726.23
2023-01-20T15:58:58.389Z,97731.70
2023-01-20T16:01:26.529Z,97739.20
2023-01-20T16:03:53.715Z,97742.09
2023-01-20T16:06:22.558Z,97743.29
2023-01-20T16:08:50.066Z,97746.38
2023-01-20T16:11:20.093Z,97742.59
2023-01-20T16:13:47.039Z,97745.48
2023-01-20T16:16:16.190Z,97745.48
2023-01-20T16:18:42.986Z,97739.84
2023-01-20T16:21:14.544Z,97739.70
2023-01-20T16:23:42.744Z,97743.14
2023-01-20T16:26:24.531Z,97747.42
2023-01-20T16:28:52.658Z,97749.13
2023-01-20T16:31:19.883Z,97746.03
2023-01-20T16:33:47.124Z,97741.94
2023-01-20T16:36:16.892Z,97749.77
2023-01-20T16:38:44.092Z,97750.27
2023-01-20T16:41:25.377Z,97753.33
2023-01-20T16:43:54.078Z,97750.46
2023-01-20T16:46:29.202Z,97749.11
2023-01-20T16:48:56.314Z,97750.52
2023-01-20T16:51:23.535Z,97760.61
2023-01-20T16:53:49.985Z,97761.34
2023-01-20T16:56:21.410Z,97764.08
2023-01-20T16:58:49.095Z,97761.52
2023-01-20T17:01:16.650Z,97766.66
2023-01-20T17:03:43.295Z,97766.69
2023-01-20T17:06:12.389Z,97770.48
2023-01-20T17:08:39.024Z,97766.58
2023-01-20T17:11:05.890Z,97773.41
2023-01-20T17:13:32.620Z,97774.13
2023-01-20T17:15:59.360Z,97773.83
2023-01-20T17:18:25.797Z,97773.34
2023-01-20T17:20:52.335Z,97773.52
2023-01-20T17:23:18.798Z,97773.04
2023-01-20T17:25:45.417Z,97770.83
2023-01-20T17:28:11.955Z,97772.92
2023-01-20T17:30:38.415Z,97773.13
2023-01-20T17:33:04.949Z,97769.92
2023-01-20T17:35:31.574Z,97769.11
2023-01-20T17:37:58.224Z,97767.25
2023-01-20T17:40:24.755Z,97768.48
2023-01-20T17:42:54.068Z,97766.45
2023-01-20T17:45:20.607Z,97766.30
2023-01-20T17:47:50.793Z,97762.22
2023-01-20T17:50:18.186Z,97760.19
2023-01-20T17:52:45.089Z,97758.51
2023-01-20T17:55:11.541Z,97757.65
2023-01-20T17:57:38.045Z,97758.70
2023-01-20T18:00:05.843Z,97755.81
2023-01-20T18:02:32.288Z,97758.20
2023-01-20T18:04:58.725Z,97751.55
2023-01-20T18:07:25.301Z,97747.64
2023-01-20T18:09:51.783Z,97747.48
2023-01-20T18:12:18.297Z,97744.40
2023-01-20T18:14:44.830Z,97738.11
2023-01-20T18:17:11.700Z,97736.40
2023-01-20T18:19:38.219Z,97739.13
2023-01-20T18:22:04.965Z,97739.87
2023-01-20T18:24:31.387Z,97737.85
2023-01-20T18:26:58.030Z,97736.48
2023-01-20T18:29:24.796Z,97734.60
2023-01-20T18:31:51.767Z,97734.10
2023-01-20T18:34:18.395Z,97724.55
2023-01-20T18:36:45.749Z,97722.30
2023-01-20T18:39:24.316Z,97722.98
2023-01-20T18:41:51.947Z,97722.15
2023-01-20T18:44:19.935Z,97729.45
2023-01-20T18:46:47.179Z,97736.79
2023-01-20T18:49:15.197Z,97744.97
2023-01-20T18:51:42.540Z,97745.46
2023-01-20T18:54:15.998Z,97746.30
2023-01-20T18:56:43.240Z,97747.13
2023-01-20T18:59:11.580Z,97748.14
2023-01-20T19:01:40.109Z,97748.13
2023-01-20T19:04:09.262Z,97751.52
2023-01-20T19:06:44.687Z,97746.55
2023-01-20T19:09:12.255Z,97745.65
2023-01-20T19:11:41.336Z,97749.93
2023-01-20T19:14:11.909Z,97753.21
2023-01-20T19:16:39.533Z,97750.50
2023-01-20T19:19:07.331Z,97741.63
2023-01-20T19:21:35.178Z,97745.40
2023-01-20T19:24:03.047Z,97742.52
2023-01-20T19:26:29.585Z,97730.77
2023-01-20T19:28:57.241Z,97728.40
2023-01-20T19:31:24.629Z,97732.19
2023-01-20T19:33:51.550Z,97736.62
2023-01-20T19:36:19.422Z,97735.63
2023-01-20T19:38:46.707Z,97735.30
2023-01-20T19:41:31.970Z,97734.91
2023-01-20T19:44:00.600Z,97737.66
2023-01-20T19:46:32.839Z,97732.91
2023-01-20T19:49:00.494Z,97735.80
2023-01-20T19:51:27.245Z,97728.13
2023-01-20T19:53:56.240Z,97720.98
2023-01-20T19:56:24.100Z,97718.60
2023-01-20T19:58:52.792Z,97723.72
2023-01-20T20:01:31.938Z,97740.10
2023-01-20T20:03:59.209Z,97738.57
2023-01-20T20:06:37.504Z,97725.14
2023-01-20T20:09:10.928Z,97724.80
2023-01-20T20:11:38.163Z,97730.41
2023-01-20T20:14:06.737Z,97725.81
2023-01-20T20:16:35.736Z,97729.73
2023-01-20T20:19:02.716Z,97735.87
2023-01-20T20:21:29.151Z,97737.91
2023-01-20T20:23:58.355Z,97735.87
2023-01-20T20:26:31.616Z,97728.23
2023-01-20T20:28:59.718Z,97726.86
2023-01-20T20:31:26.657Z,97727.71
2023-01-20T20:33:53.508Z,97717.16
2023-01-20T20:36:20.007Z,97722.30
2023-01-20T20:38:51.238Z,97727.58
2023-01-20T20:41:18.567Z,97716.16
2023-01-20T20:43:45.399Z,97712.58
2023-01-20T20:46:15.911Z,97709.19
2023-01-20T20:48:42.877Z,97707.84
2023-01-20T20:51:12.922Z,97708.88
2023-01-20T20:53:40.474Z,97711.44
2023-01-20T20:56:14.884Z,97720.30
2023-01-20T20:59:00.062Z,97726.44
2023-01-20T21:01:29.226Z,97716.20
2023-01-20T21:03:55.926Z,97709.05
2023-01-20T21:06:22.343Z,97715.18
2023-01-20T21:08:49.235Z,97716.39
2023-01-20T21:11:15.831Z,97708.39
2023-01-20T21:13:42.573Z,97714.90
2023-01-20T21:16:14.540Z,97712.89
2023-01-20T21:18:41.697Z,97715.42
2023-01-20T21:21:12.589Z,97713.89
2023-01-20T21:23:39.733Z,97718.66
2023-01-20T21:26:13.104Z,97719.00
2023-01-20T21:28:40.573Z,97719.00
2023-01-20T21:31:15.413Z,97720.20
2023-01-20T21:33:43.691Z,97720.72
2023-01-20T21:36:10.547Z,97715.09
2023-01-20T21:38:36.981Z,97712.38
2023-01-20T21:41:05.236Z,97714.27
2023-01-20T21:43:32.905Z,97718.20
2023-01-20T21:45:59.297Z,97712.89
2023-01-20T21:48:25.753Z,97714.29
2023-01-20T21:50:52.331Z,97713.25
2023-01-20T21:53:18.891Z,97715.30
2023-01-20T21:55:45.391Z,97717.31
2023-01-20T21:58:11.812Z,97713.05
2023-01-20T22:00:38.269Z,97713.06
2023-01-20T22:03:04.752Z,97710.84
2023-01-20T22:05:31.244Z,97710.34
2023-01-20T22:07:57.783Z,97713.41
2023-01-20T22:10:24.277Z,97714.25
2023-01-20T22:12:50.769Z,97720.73
2023-01-20T22:15:17.308Z,97714.25
2023-01-20T22:17:43.770Z,97712.05
2023-01-20T22:20:10.922Z,97705.59
2023-01-20T22:22:37.341Z,97709.34
2023-01-20T22:25:03.971Z,97706.13
2023-01-20T22:27:30.568Z,97712.44
2023-01-20T22:29:57.061Z,97711.05
2023-01-20T22:32:23.539Z,97710.22
2023-01-20T22:34:49.971Z,97714.47
2023-01-20T22:37:16.578Z,97705.45
2023-01-20T22:39:43.121Z,97702.54
2023-01-20T22:42:09.592Z,97701.35
2023-01-20T22:44:36.104Z,97700.16
2023-01-20T22:47:02.700Z,97694.89
2023-01-20T22:49:29.188Z,97689.11
2023-01-20T22:51:55.628Z,97694.58
2023-01-20T22:54:22.265Z,97698.66
2023-01-20T22:56:48.799Z,97695.59
2023-01-20T22:59:15.358Z,97689.29
2023-01-20T23:01:41.896Z,97685.88
2023-01-20T23:04:09.743Z,97680.45
2023-01-20T23:06:36.962Z,97679.95
2023-01-20T23:09:07.479Z,97685.75
2023-01-20T23:11:34.883Z,97690.36
2023-01-20T23:14:01.592Z,97689.98
2023-01-20T23:16:28.328Z,97694.57
2023-01-20T23:18:54.937Z,97697.13
2023-01-20T23:21:21.864Z,97699.36
2023-01-20T23:23:48.532Z,97698.48
2023-01-20T23:26:18.952Z,97697.98
2023-01-20T23:28:47.034Z,97695.08
2023-01-20T23:31:16.363Z,97690.65
2023-01-20T23:33:44.226Z,97689.44
2023-01-20T23:36:14.427Z,97686.89
2023-01-20T23:38:42.389Z,97688.09
2023-01-20T23:41:09.881Z,97687.07
2023-01-20T23:43:36.421Z,97680.59
2023-01-20T23:46:05.271Z,97678.71
2023-01-20T23:48:32.543Z,97669.16
2023-01-20T23:50:59.124Z,97666.27
2023-01-20T23:53:27.358Z,97662.19
2023-01-20T23:55:59.164Z,97661.67
2023-01-20T23:58:25.702Z,97661.34
